Kezdőlap
METAR-TAF:

METAR-TAF

Repülőterek :

Jakutszk, Oroszország

földrajzi szélesség: 62-01N, földrajzi hosszúság: 129-43E, magasság: 103 m

Jelenlegi meteorológiai megfigyelések

A jelentés 16 perccel ezelõtt készült, 17:30 UTC
Nyugati szél 6 kt
Hőmérséklet 10°C
Páratartalom 57%
Légköri nyomás 1009 hPa
Látótávolság 10 km, vagy több
felhőtlen 1500 m magasságban, és nincs gomolyfelhõ

METAR: UEEE 021730Z 26003MPS CAVOK 10/02 Q1009 R05/09//60 NOSIG RMK QFE748

Idő: 02:46 (17:46 UTC)

Előrejelzés

A jelentés 46 perccel ezelõtt készült, 17:00 UTC
Az előrejelzés 02-én 18 óra UTC és 03-én 24 óra UTC között érvényes
Északnyugati szél 6 kt széllökések: 19 kt
Látótávolság 10 km, vagy több
felhőtlen 1500 m magasságban, és nincs gomolyfelhõ

TAF: UEEE 021700Z 0218/0324 31003G10MPS CAVOK

Meteorológiai megfigyelések és előrejelzések több, mint 4000 repülőtéren (METAR és TAF jelentéseket).

A térképen piros és sárga pontok jelzik az elérhető meteorológiai állomásokat.

Mozgassa az egeret a pont fölött, hogy megjelenjen az állomás neve.

Azután kattintson az időjárási megfigyelések és előrejelzések megtekintéséhez.

A térkép megváltoztatása: kattintson a fekete keresztel jelölt zöld gombra ráközelítéshez, a vonallal jelölt zöld gombra távolításhoz, vagy a zöld nyilakra a szomszédos térképek eléréséhez.


METAR-TAF: